Time;durP1;ratioP1;P1;durP2;ratioP2;P2;SDS_P1;SDS_P2;PMS_P1;PMS_P2;Temp;Humidity;BMP_temperature;BMP_pressure;BME280_temperature;BME280_humidity;BME280_pressure;Samples;Min_cycle;Max_cycle;Signal;HPM_P1;HPM_P2
2021/05/16 00:05:35;;;;;;;7.58;5.40;;;;;;;15.11;100.00;98113.02;4248949;82;28525;-84
2021/05/16 00:11:37;;;;;;;7.72;5.17;;;;;;;15.30;100.00;98107.17;4227168;82;28573;-85
2021/05/16 00:17:39;;;;;;;6.78;4.53;;;;;;;14.85;100.00;98102.42;4268104;82;28509;-84
2021/05/16 00:23:40;;;;;;;7.55;4.25;;;;;;;14.94;100.00;98106.67;4223176;83;28469;-85
2021/05/16 00:29:41;;;;;;;7.55;4.12;;;;;;;14.96;100.00;98103.95;4213199;84;28519;-84
2021/05/16 00:35:42;;;;;;;7.80;4.42;;;;;;;14.72;100.00;98092.47;4196232;83;28577;-84
2021/05/16 00:41:44;;;;;;;7.25;4.33;;;;;;;14.87;100.00;98097.53;4243929;81;28514;-85
2021/05/16 00:47:59;;;;;;;5.92;4.00;;;;;;;14.75;100.00;98103.28;4199695;84;28488;-84
2021/05/16 00:54:00;;;;;;;6.62;3.70;;;;;;;14.69;100.00;98084.11;4202924;83;28532;-84
2021/05/16 01:00:08;;;;;;;5.72;3.42;;;;;;;14.83;100.00;98080.22;4298735;81;28677;-85
2021/05/16 01:06:10;;;;;;;5.55;3.98;;;;;;;14.82;100.00;98075.91;4190804;83;28569;-84
2021/05/16 01:12:13;;;;;;;5.78;4.00;;;;;;;14.79;100.00;98062.41;4298850;83;28516;-84
2021/05/16 01:18:15;;;;;;;5.97;3.98;;;;;;;14.77;100.00;98055.92;4190317;83;28493;-85
2021/05/16 01:24:21;;;;;;;8.08;4.08;;;;;;;14.46;100.00;98043.95;4307773;83;28491;-83
2021/05/16 01:30:24;;;;;;;5.30;3.20;;;;;;;14.53;100.00;98052.30;4215516;83;28480;-84
2021/05/16 01:36:25;;;;;;;5.47;3.60;;;;;;;14.35;100.00;98068.09;4176984;83;28571;-85
2021/05/16 01:42:27;;;;;;;5.12;3.67;;;;;;;14.56;100.00;98058.49;4169830;83;28488;-85
2021/05/16 01:48:29;;;;;;;5.62;3.95;;;;;;;14.65;100.00;98060.86;4207770;83;28545;-85
2021/05/16 01:54:31;;;;;;;5.12;3.47;;;;;;;14.31;100.00;98061.61;4307420;82;28536;-84
2021/05/16 02:00:44;;;;;;;4.75;3.45;;;;;;;14.14;100.00;98057.40;4265038;83;28500;-85
2021/05/16 02:06:50;;;;;;;5.33;3.40;;;;;;;14.12;100.00;98052.00;4244690;83;28522;-84
2021/05/16 02:12:52;;;;;;;6.22;3.37;;;;;;;14.34;100.00;98061.08;4232074;82;28506;-84
2021/05/16 02:18:54;;;;;;;5.30;3.35;;;;;;;14.34;100.00;98060.52;4255756;83;28586;-83
2021/05/16 02:24:57;;;;;;;8.45;4.62;;;;;;;14.23;100.00;98064.37;4256350;83;29056;-84
2021/05/16 02:31:09;;;;;;;5.65;3.83;;;;;;;14.42;100.00;98054.26;4254950;82;28553;-84
2021/05/16 02:37:11;;;;;;;7.10;3.85;;;;;;;14.43;100.00;98047.76;4242154;82;28529;-83
2021/05/16 02:43:14;;;;;;;7.60;4.00;;;;;;;14.43;100.00;98052.64;4268296;83;28517;-83
2021/05/16 02:49:16;;;;;;;5.30;3.60;;;;;;;14.66;100.00;98050.30;4276870;82;28531;-83
2021/05/16 02:55:22;;;;;;;8.03;3.60;;;;;;;14.63;100.00;98053.02;4256141;82;28482;-82
2021/05/16 03:01:22;;;;;;;7.50;3.87;;;;;;;14.50;100.00;98050.96;4270257;83;28590;-84
2021/05/16 03:07:25;;;;;;;6.28;4.12;;;;;;;14.36;100.00;98053.48;4306583;81;28585;-84
2021/05/16 03:13:26;;;;;;;5.90;4.08;;;;;;;14.61;100.00;98049.80;4307337;81;28481;-84
2021/05/16 03:19:28;;;;;;;7.58;3.87;;;;;;;14.93;100.00;98047.66;4295620;81;28604;-84
2021/05/16 03:25:33;;;;;;;6.30;4.20;;;;;;;14.58;100.00;98047.66;4256294;82;28548;-84
2021/05/16 03:31:35;;;;;;;6.60;4.10;;;;;;;14.58;100.00;98045.49;4288551;82;28578;-84
2021/05/16 03:37:36;;;;;;;7.28;4.70;;;;;;;14.68;100.00;98042.70;4272873;82;28500;-84
2021/05/16 03:43:38;;;;;;;7.72;4.75;;;;;;;14.98;100.00;98046.81;4263760;82;28489;-85
2021/05/16 03:49:39;;;;;;;8.28;4.85;;;;;;;14.87;100.00;98040.14;4271062;83;28486;-83
2021/05/16 03:55:41;;;;;;;6.50;4.58;;;;;;;15.09;100.00;98046.98;4267341;82;28490;-83
2021/05/16 04:01:42;;;;;;;10.48;5.12;;;;;;;15.19;100.00;98048.80;4274436;82;28489;-83
2021/05/16 04:07:44;;;;;;;8.93;4.80;;;;;;;15.39;100.00;98037.50;4242410;82;28502;-85
2021/05/16 04:13:45;;;;;;;6.47;5.08;;;;;;;15.63;100.00;98034.80;4273941;81;28615;-84
2021/05/16 04:19:47;;;;;;;10.45;6.17;;;;;;;15.76;100.00;98029.20;4260524;81;28589;-83
2021/05/16 04:25:48;;;;;;;9.58;5.22;;;;;;;16.27;100.00;98049.44;4266987;81;28529;-85
2021/05/16 04:31:49;;;;;;;8.00;5.30;;;;;;;16.45;100.00;98045.11;4243523;82;28499;-84
2021/05/16 04:37:50;;;;;;;7.87;4.95;;;;;;;16.72;100.00;98032.77;4267674;82;28533;-85
2021/05/16 04:43:52;;;;;;;7.60;4.83;;;;;;;16.80;100.00;98035.88;4214898;81;28560;-84
2021/05/16 04:49:53;;;;;;;9.78;5.10;;;;;;;16.83;100.00;98035.31;4275274;82;28480;-84
2021/05/16 04:55:54;;;;;;;7.25;5.08;;;;;;;17.08;100.00;98028.66;4278702;82;28672;-86
2021/05/16 05:01:56;;;;;;;6.65;4.83;;;;;;;17.12;100.00;98030.20;4275077;82;28504;-85
2021/05/16 05:07:58;;;;;;;6.25;4.15;;;;;;;17.13;100.00;98031.27;4251153;81;28494;-85
2021/05/16 05:13:59;;;;;;;6.17;4.12;;;;;;;17.40;100.00;98014.77;4211841;83;28559;-82
2021/05/16 05:20:01;;;;;;;5.50;3.62;;;;;;;17.62;100.00;98013.79;4260224;82;28574;-82
2021/05/16 05:26:02;;;;;;;5.35;3.40;;;;;;;18.04;100.00;98010.48;4198976;83;28479;-83
2021/05/16 05:32:05;;;;;;;6.00;3.17;;;;;;;18.21;100.00;98025.36;4270260;83;28526;-84
2021/05/16 05:38:06;;;;;;;4.05;2.60;;;;;;;18.30;100.00;98026.79;4220644;82;28599;-83
2021/05/16 05:44:08;;;;;;;6.45;2.55;;;;;;;18.63;100.00;98030.09;4249314;82;28470;-84
2021/05/16 05:50:11;;;;;;;2.90;2.00;;;;;;;18.41;100.00;98032.23;4287839;83;28495;-84
2021/05/16 05:56:12;;;;;;;4.08;2.00;;;;;;;18.72;100.00;98033.45;4236465;83;28493;-83
2021/05/16 06:02:13;;;;;;;3.65;1.85;;;;;;;18.99;100.00;98045.29;4256502;82;28499;-83
2021/05/16 06:08:15;;;;;;;3.83;1.98;;;;;;;19.45;100.00;98040.03;4282258;83;28531;-84
2021/05/16 06:14:17;;;;;;;3.50;2.00;;;;;;;19.75;100.00;98035.39;4224819;83;28499;-84
2021/05/16 06:20:18;;;;;;;2.58;2.10;;;;;;;19.90;100.00;98036.88;4222617;83;28546;-83
2021/05/16 06:26:20;;;;;;;4.58;2.00;;;;;;;19.97;100.00;98037.80;4195378;83;28563;-84
2021/05/16 06:32:21;;;;;;;3.02;2.08;;;;;;;20.02;95.75;98036.30;4254901;83;28561;-83
2021/05/16 06:38:23;;;;;;;3.22;2.00;;;;;;;19.78;96.47;98041.02;4233262;83;28482;-83
2021/05/16 06:44:25;;;;;;;2.50;2.02;;;;;;;19.94;100.00;98041.95;4243870;82;28607;-83
2021/05/16 06:50:27;;;;;;;3.05;1.60;;;;;;;20.14;100.00;98039.75;4253202;81;28512;-85
2021/05/16 06:56:28;;;;;;;3.70;1.98;;;;;;;20.23;89.01;98039.77;4214725;83;28505;-83
2021/05/16 07:02:30;;;;;;;3.05;1.80;;;;;;;20.20;100.00;98038.48;4241543;81;28559;-85
2021/05/16 07:08:33;;;;;;;2.27;1.50;;;;;;;20.18;100.00;98029.23;4205294;83;28547;-85
2021/05/16 07:14:35;;;;;;;2.67;1.80;;;;;;;20.53;94.69;98034.48;4261187;81;28578;-85
2021/05/16 07:20:36;;;;;;;3.22;1.65;;;;;;;20.75;85.87;98038.39;4252428;83;28499;-81
2021/05/16 07:26:38;;;;;;;4.00;1.35;;;;;;;20.97;92.14;98037.98;4235996;83;28552;-83
2021/05/16 07:32:39;;;;;;;3.25;1.32;;;;;;;21.02;87.13;98032.33;4226572;83;28517;-85
2021/05/16 07:38:40;;;;;;;2.40;1.12;;;;;;;20.93;82.62;98037.04;4193342;84;28483;-85
2021/05/16 07:44:42;;;;;;;2.33;1.15;;;;;;;21.13;74.32;98022.42;4304149;81;28488;-83
2021/05/16 07:50:44;;;;;;;2.02;1.10;;;;;;;21.33;71.17;98024.20;4225906;83;28534;-85
2021/05/16 07:56:45;;;;;;;2.42;1.50;;;;;;;21.78;76.32;98035.20;4213666;83;28538;-85
2021/05/16 08:02:47;;;;;;;1.62;1.30;;;;;;;21.82;69.22;98038.91;4220224;83;28665;-86
2021/05/16 08:08:49;;;;;;;1.62;1.25;;;;;;;22.08;72.37;98040.66;4248435;81;28560;-85
2021/05/16 08:14:51;;;;;;;3.17;1.30;;;;;;;22.19;67.41;98041.09;4246475;82;28517;-85
2021/05/16 08:20:52;;;;;;;1.75;1.20;;;;;;;22.11;64.88;98046.83;4247411;82;28601;-86
2021/05/16 08:26:53;;;;;;;1.40;1.05;;;;;;;22.00;66.27;98053.28;4246380;82;28606;-85
2021/05/16 08:32:56;;;;;;;1.55;1.00;;;;;;;21.81;67.07;98057.23;4284427;81;28509;-86
2021/05/16 08:38:57;;;;;;;1.25;1.00;;;;;;;21.37;67.41;98060.70;4304749;81;28491;-86
2021/05/16 08:44:58;;;;;;;1.65;1.02;;;;;;;21.34;70.45;98070.91;4289395;81;28498;-85
2021/05/16 08:51:00;;;;;;;2.20;1.02;;;;;;;20.99;74.92;98085.48;4274446;81;28537;-92
2021/05/16 08:57:02;;;;;;;1.30;1.00;;;;;;;20.87;79.78;98077.94;4278681;81;28574;-87
2021/05/16 09:03:16;;;;;;;2.20;1.40;;;;;;;20.24;84.52;98079.01;4278729;81;28534;-86
2021/05/16 09:09:36;;;;;;;2.02;1.05;;;;;;;19.83;95.26;98104.16;4228001;83;28476;-85
2021/05/16 09:15:38;;;;;;;3.35;1.35;;;;;;;19.86;100.00;98104.10;4259725;83;28497;-85
2021/05/16 09:21:39;;;;;;;3.33;1.50;;;;;;;19.46;100.00;98116.59;4307501;81;28507;-86
2021/05/16 09:27:43;;;;;;;2.42;1.30;;;;;;;19.18;100.00;98119.48;4266790;81;28527;-85
2021/05/16 09:33:53;;;;;;;2.75;1.12;;;;;;;18.81;100.00;98120.08;4292481;81;28488;-84
2021/05/16 09:39:54;;;;;;;3.95;1.50;;;;;;;19.13;100.00;98128.33;4251739;81;28502;-84
2021/05/16 09:46:04;;;;;;;3.17;1.32;;;;;;;19.53;100.00;98126.27;4284923;81;28498;-84
2021/05/16 09:52:19;;;;;;;2.17;1.00;;;;;;;19.83;100.00;98119.71;4252800;82;28543;-85
2021/05/16 09:58:21;;;;;;;1.67;0.70;;;;;;;20.79;88.48;98108.20;4194687;82;28499;-86
2021/05/16 10:04:23;;;;;;;0.85;0.70;;;;;;;20.86;84.29;98114.00;4181190;83;28482;-84
2021/05/16 10:10:24;;;;;;;1.55;0.98;;;;;;;21.30;87.94;98104.38;4188544;83;28552;-86
2021/05/16 10:16:29;;;;;;;1.00;0.82;;;;;;;21.49;82.23;98096.91;4164036;83;28541;-86
2021/05/16 10:22:31;;;;;;;2.98;0.88;;;;;;;22.05;75.05;98102.91;4209080;83;28535;-85
2021/05/16 10:28:57;;;;;;;1.77;0.70;;;;;;;21.90;72.05;98111.12;4251286;81;28532;-86
2021/05/16 10:35:07;;;;;;;1.57;0.70;;;;;;;22.01;68.32;98098.66;4195936;83;28517;-85
2021/05/16 10:41:23;;;;;;;2.22;0.70;;;;;;;22.20;69.41;98101.54;4273547;81;28495;-84
2021/05/16 10:47:47;;;;;;;1.60;0.90;;;;;;;22.22;75.35;98106.89;4280587;82;28502;-85
2021/05/16 10:53:50;;;;;;;1.90;0.80;;;;;;;21.45;75.75;98094.03;4197580;83;33643;-86
2021/05/16 10:59:51;;;;;;;1.32;0.98;;;;;;;22.27;67.20;98094.39;4176710;83;28487;-83
2021/05/16 11:05:55;;;;;;;2.83;1.00;;;;;;;22.35;66.61;98097.42;4235128;81;28898;-84
2021/05/16 11:11:57;;;;;;;0.80;0.80;;;;;;;22.10;64.28;98094.50;4251275;81;28563;-86
2021/05/16 11:17:58;;;;;;;1.15;0.80;;;;;;;22.40;64.00;98092.55;4244639;82;28527;-86
2021/05/16 11:24:00;;;;;;;0.95;0.60;;;;;;;22.36;59.56;98090.22;4249392;81;28569;-86
2021/05/16 11:30:11;;;;;;;1.02;0.72;;;;;;;22.20;58.39;98094.11;4263441;81;28558;-86
2021/05/16 11:36:18;;;;;;;2.02;0.62;;;;;;;22.35;58.40;98080.41;4213714;82;28486;-86
2021/05/16 11:42:36;;;;;;;1.67;0.50;;;;;;;21.62;57.68;98086.90;4260969;81;28535;-85
2021/05/16 11:48:39;;;;;;;0.98;0.70;;;;;;;22.35;57.73;98080.41;4201771;83;28522;-86
2021/05/16 11:54:44;;;;;;;1.27;0.70;;;;;;;22.19;58.05;98084.88;4214091;82;28489;-87
2021/05/16 12:00:47;;;;;;;0.93;0.75;;;;;;;22.26;58.86;98080.48;4275941;81;28470;-85
2021/05/16 12:06:52;;;;;;;0.75;0.68;;;;;;;21.95;61.05;98079.45;4213692;82;28573;-87
2021/05/16 12:12:53;;;;;;;1.40;0.90;;;;;;;21.99;59.82;98075.72;4229005;82;28475;-86
2021/05/16 12:18:55;;;;;;;1.15;0.80;;;;;;;21.32;64.71;98076.72;4203148;83;28527;-85
2021/05/16 12:24:57;;;;;;;1.77;1.12;;;;;;;21.81;65.61;98073.66;4176222;82;28601;-86
2021/05/16 12:30:59;;;;;;;1.40;0.82;;;;;;;21.82;60.96;98073.10;4133514;84;28486;-86
2021/05/16 12:37:05;;;;;;;1.62;1.17;;;;;;;22.10;66.03;98062.47;4149513;84;28564;-86
2021/05/16 12:43:09;;;;;;;2.37;0.90;;;;;;;22.44;63.08;98066.67;4141471;84;28503;-86
2021/05/16 12:49:13;;;;;;;2.40;0.70;;;;;;;22.34;65.96;98063.75;4154337;84;28468;-86
2021/05/16 12:55:28;;;;;;;1.80;1.10;;;;;;;21.32;68.39;98078.09;4130244;84;28553;-86
2021/05/16 13:01:36;;;;;;;3.10;0.93;;;;;;;21.14;76.22;98086.91;4152353;84;28498;-85
2021/05/16 13:07:48;;;;;;;1.72;1.00;;;;;;;20.97;79.81;98075.42;4134981;84;28573;-85
2021/05/16 13:14:00;;;;;;;2.87;0.80;;;;;;;20.76;86.13;98077.42;4144166;84;28506;-76
2021/05/16 13:20:01;;;;;;;1.92;0.98;;;;;;;20.88;88.57;98072.70;4140370;84;28518;-77
2021/05/16 13:26:03;;;;;;;2.37;1.10;;;;;;;21.37;83.16;98073.80;4208794;82;28497;-77
2021/05/16 13:32:05;;;;;;;1.65;0.75;;;;;;;21.64;83.03;98083.27;4248819;81;28553;-80
2021/05/16 13:38:07;;;;;;;1.80;1.10;;;;;;;21.84;80.07;98085.88;4238133;83;28485;-79
2021/05/16 13:44:10;;;;;;;2.27;1.10;;;;;;;21.42;82.64;98078.28;4263445;82;28584;-77
2021/05/16 13:50:12;;;;;;;2.65;1.10;;;;;;;21.53;79.31;98081.48;4220875;82;28548;-77
2021/05/16 13:56:13;;;;;;;2.12;1.25;;;;;;;21.92;76.67;98085.04;4251930;82;28478;-82
2021/05/16 14:02:15;;;;;;;1.10;0.80;;;;;;;22.15;72.27;98078.68;4245903;82;28558;-82
2021/05/16 14:08:17;;;;;;;0.62;0.60;;;;;;;22.21;65.24;98078.50;4223923;82;28486;-77
2021/05/16 14:14:19;;;;;;;0.80;0.70;;;;;;;21.57;59.35;98075.58;4268904;81;28483;-77
2021/05/16 14:20:20;;;;;;;1.02;0.70;;;;;;;21.43;60.62;98076.60;4223496;82;28578;-76
2021/05/16 14:26:22;;;;;;;0.90;0.80;;;;;;;21.31;62.51;98077.85;4251035;81;28591;-77
2021/05/16 14:32:23;;;;;;;1.37;0.70;;;;;;;21.50;61.25;98079.38;4229216;82;28521;-80
2021/05/16 14:38:25;;;;;;;1.32;0.90;;;;;;;21.56;63.43;98068.51;4300087;81;28515;-78
2021/05/16 14:44:26;;;;;;;0.98;0.65;;;;;;;21.21;62.54;98073.52;4294446;81;28560;-78
2021/05/16 14:56:38;;;;;;;3.05;1.82;;;;;;;21.41;66.28;98063.83;4224675;81;28593;-78
2021/05/16 15:02:39;;;;;;;2.05;1.15;;;;;;;21.64;66.87;98060.84;4210173;82;28534;-78
2021/05/16 15:08:42;;;;;;;1.98;1.35;;;;;;;21.69;64.37;98057.15;4201778;83;28575;-77
2021/05/16 15:14:43;;;;;;;2.60;1.57;;;;;;;21.51;65.67;98060.50;4267001;81;28688;-76
2021/05/16 15:20:44;;;;;;;2.62;1.30;;;;;;;21.58;65.19;98056.12;4205123;83;28571;-77
2021/05/16 15:26:46;;;;;;;3.02;1.52;;;;;;;21.69;66.58;98053.05;4212838;82;28555;-75
2021/05/16 15:32:47;;;;;;;1.72;1.35;;;;;;;21.92;61.33;98053.57;4253407;81;28499;-78
2021/05/16 15:38:48;;;;;;;3.85;1.40;;;;;;;22.29;60.53;98044.21;4208119;82;28483;-80
2021/05/16 15:44:50;;;;;;;2.65;1.60;;;;;;;22.43;59.14;98043.13;4206269;82;28510;-84
2021/05/16 15:50:51;;;;;;;3.02;1.52;;;;;;;22.38;59.62;98033.77;4244895;81;28513;-79
2021/05/16 15:56:53;;;;;;;2.72;1.77;;;;;;;21.75;62.23;98032.56;4174628;83;28536;-82
2021/05/16 16:02:58;;;;;;;2.00;1.60;;;;;;;21.74;62.50;98032.33;4202382;83;28497;-80
2021/05/16 16:09:02;;;;;;;2.22;1.52;;;;;;;22.04;61.85;98015.89;4264198;81;28556;-82
2021/05/16 16:15:05;;;;;;;4.25;2.05;;;;;;;22.18;61.16;98019.74;4229586;83;28536;-79
2021/05/16 16:21:06;;;;;;;2.22;2.00;;;;;;;21.68;62.81;98014.52;4211878;83;28522;-82
2021/05/16 16:27:08;;;;;;;2.92;1.65;;;;;;;21.43;63.00;98009.62;4252833;81;28573;-80
2021/05/16 16:33:09;;;;;;;3.40;1.90;;;;;;;21.16;63.94;98012.22;4243616;82;28554;-79
2021/05/16 16:39:10;;;;;;;4.42;2.20;;;;;;;21.48;64.40;98009.19;4254142;82;28562;-79
2021/05/16 16:45:12;;;;;;;2.22;1.90;;;;;;;21.42;64.90;98002.55;4232730;82;28527;-80
2021/05/16 16:51:15;;;;;;;2.75;1.72;;;;;;;21.31;67.50;98002.68;4240065;82;28517;-79
2021/05/16 16:57:16;;;;;;;2.75;1.65;;;;;;;21.83;64.06;97999.47;4246588;82;28500;-80
2021/05/16 17:03:18;;;;;;;2.20;1.57;;;;;;;22.17;63.24;97999.53;4245277;82;28474;-80
2021/05/16 17:09:19;;;;;;;1.75;1.25;;;;;;;22.56;60.98;97995.55;4282698;81;28603;-82
2021/05/16 17:15:21;;;;;;;2.70;1.50;;;;;;;22.58;59.40;98002.62;4255653;81;28674;-81
2021/05/16 17:21:23;;;;;;;4.67;1.60;;;;;;;22.32;60.52;98002.23;4286783;81;28559;-83
2021/05/16 17:27:25;;;;;;;2.10;1.50;;;;;;;22.24;62.05;98007.47;4289369;81;28518;-83
2021/05/16 17:33:26;;;;;;;2.47;1.70;;;;;;;22.28;62.02;98008.39;4282141;81;28497;-81
2021/05/16 17:39:28;;;;;;;3.75;1.90;;;;;;;22.13;63.15;98005.69;4278157;81;28499;-79
2021/05/16 17:45:31;;;;;;;3.72;1.42;;;;;;;22.03;64.64;98011.55;4266598;81;28568;-78
2021/05/16 17:51:32;;;;;;;4.40;1.77;;;;;;;21.94;64.97;98012.99;4276323;81;28624;-78
2021/05/16 17:57:34;;;;;;;3.05;1.80;;;;;;;21.38;68.67;98006.27;4285684;81;28519;-81
2021/05/16 18:03:35;;;;;;;5.17;1.80;;;;;;;21.03;70.89;98008.56;4213915;83;28493;-81
2021/05/16 18:09:37;;;;;;;3.65;1.85;;;;;;;20.36;82.32;98004.69;4257352;81;28608;-80
2021/05/16 18:15:39;;;;;;;2.25;1.77;;;;;;;19.70;90.78;98015.89;4218616;83;28511;-80
2021/05/16 18:21:41;;;;;;;4.85;2.10;;;;;;;19.42;94.31;98012.06;4249581;81;28551;-80
2021/05/16 18:27:43;;;;;;;3.17;1.85;;;;;;;18.87;100.00;98009.12;4233803;82;28552;-78
2021/05/16 18:33:46;;;;;;;3.95;1.98;;;;;;;18.39;100.00;98005.36;4255790;82;28648;-78
2021/05/16 18:39:47;;;;;;;7.55;2.42;;;;;;;18.29;100.00;98001.52;4225380;83;28636;-79
2021/05/16 18:45:49;;;;;;;4.78;2.02;;;;;;;17.84;100.00;98004.34;4230744;83;28504;-79
2021/05/16 18:51:50;;;;;;;4.95;2.00;;;;;;;17.88;100.00;98013.27;4262305;83;28495;-79
2021/05/16 18:57:51;;;;;;;4.42;2.00;;;;;;;17.55;100.00;98016.91;4207187;83;28525;-79
2021/05/16 19:03:53;;;;;;;4.67;2.08;;;;;;;17.20;100.00;98015.94;4199759;83;28545;-78
2021/05/16 19:09:55;;;;;;;5.47;2.15;;;;;;;17.10;100.00;98021.56;4197459;82;28487;-76
2021/05/16 19:15:56;;;;;;;4.58;2.12;;;;;;;16.81;100.00;98017.95;4222677;82;28544;-78
2021/05/16 19:22:00;;;;;;;4.95;2.22;;;;;;;16.77;100.00;98014.23;4262400;81;28507;-82
2021/05/16 19:28:02;;;;;;;4.25;2.05;;;;;;;16.70;100.00;98016.52;4249556;82;28516;-84
2021/05/16 19:34:04;;;;;;;4.47;2.35;;;;;;;16.62;100.00;98018.00;4257800;82;28495;-81
2021/05/16 19:40:07;;;;;;;3.45;2.25;;;;;;;16.49;100.00;98030.95;4234001;82;28522;-79
2021/05/16 19:46:11;;;;;;;4.35;2.70;;;;;;;16.34;100.00;98042.83;4247758;82;28493;-82
2021/05/16 19:52:13;;;;;;;4.62;2.50;;;;;;;16.24;100.00;98053.28;4211091;82;28521;-82
2021/05/16 19:58:15;;;;;;;5.15;2.90;;;;;;;16.37;100.00;98057.97;4278358;82;28569;-82
2021/05/16 20:04:18;;;;;;;5.58;2.50;;;;;;;16.36;100.00;98068.56;4261865;81;28552;-83
2021/05/16 20:10:20;;;;;;;4.15;2.70;;;;;;;16.34;100.00;98073.48;4296142;81;28507;-86
2021/05/16 20:16:21;;;;;;;4.55;2.75;;;;;;;15.99;100.00;98053.91;4231190;83;28544;-84
2021/05/16 20:22:23;;;;;;;6.53;2.70;;;;;;;16.02;100.00;98057.37;4268934;81;28506;-85
2021/05/16 20:28:25;;;;;;;4.25;2.45;;;;;;;15.93;100.00;98061.30;4215744;83;28541;-84
2021/05/16 20:34:27;;;;;;;5.60;2.58;;;;;;;16.10;100.00;98064.86;4208991;83;28491;-83
2021/05/16 20:40:34;;;;;;;9.03;2.72;;;;;;;15.72;100.00;98064.75;4251423;81;28506;-81
2021/05/16 20:46:37;;;;;;;5.60;2.55;;;;;;;15.79;100.00;98068.47;4142067;84;28539;-83
2021/05/16 20:52:39;;;;;;;4.55;2.40;;;;;;;15.71;100.00;98069.92;4239264;82;28536;-75
2021/05/16 20:58:45;;;;;;;5.30;2.47;;;;;;;15.57;100.00;98074.69;4237695;82;28521;-77
2021/05/16 21:04:43;;;;;;;4.87;3.00;;;;;;;15.38;100.00;98080.01;4228093;82;28529;-76
2021/05/16 21:10:45;;;;;;;6.22;2.70;;;;;;;15.39;100.00;98088.95;4228538;83;28522;-80
2021/05/16 21:16:46;;;;;;;9.63;3.15;;;;;;;15.50;100.00;98082.34;4242834;82;28581;-82
2021/05/16 21:22:49;;;;;;;5.95;2.87;;;;;;;15.36;100.00;98084.09;4272167;81;28621;-80
2021/05/16 21:28:50;;;;;;;5.70;3.15;;;;;;;14.97;100.00;98092.03;4211623;82;28525;-81
2021/05/16 21:34:52;;;;;;;5.62;3.12;;;;;;;14.82;100.00;98084.84;4261423;83;28522;-81
2021/05/16 21:40:53;;;;;;;6.22;3.10;;;;;;;14.75;100.00;98084.34;4194969;83;28596;-77
2021/05/16 21:46:55;;;;;;;3.85;2.80;;;;;;;14.60;100.00;98085.23;4277852;82;28550;-76
2021/05/16 21:52:56;;;;;;;5.10;3.20;;;;;;;14.60;100.00;98085.23;4233685;83;28573;-75
2021/05/16 21:58:58;;;;;;;5.30;3.02;;;;;;;14.42;100.00;98082.66;4235899;84;28491;-75
2021/05/16 22:04:59;;;;;;;4.92;2.87;;;;;;;14.20;100.00;98076.54;4221927;83;28525;-77
2021/05/16 22:11:00;;;;;;;4.28;2.90;;;;;;;14.22;100.00;98068.98;4210653;83;28471;-77
2021/05/16 22:17:02;;;;;;;3.77;2.55;;;;;;;14.12;100.00;98075.80;4214649;83;28561;-77
2021/05/16 22:23:03;;;;;;;5.30;2.85;;;;;;;14.00;100.00;98079.34;4261344;83;28609;-78
2021/05/16 22:29:05;;;;;;;6.30;2.50;;;;;;;14.16;100.00;98084.12;4185236;84;28552;-76
2021/05/16 22:35:07;;;;;;;7.28;2.90;;;;;;;13.80;100.00;98091.88;4190435;83;28515;-77
2021/05/16 22:41:09;;;;;;;6.60;2.70;;;;;;;13.95;100.00;98092.33;4294606;82;28538;-76
2021/05/16 22:47:10;;;;;;;3.47;2.50;;;;;;;13.72;100.00;98087.83;4212388;83;28605;-76
2021/05/16 22:53:12;;;;;;;5.83;2.42;;;;;;;13.50;100.00;98090.32;4201543;83;28529;-76
2021/05/16 22:59:13;;;;;;;6.37;2.92;;;;;;;13.16;100.00;98092.77;4230034;83;28577;-76
2021/05/16 23:05:15;;;;;;;3.58;2.30;;;;;;;13.37;100.00;98080.06;4198435;83;28560;-76
2021/05/16 23:11:16;;;;;;;4.10;2.40;;;;;;;13.42;100.00;98069.80;4180312;83;28603;-76
2021/05/16 23:17:17;;;;;;;7.05;3.15;;;;;;;13.47;100.00;98079.25;4283231;82;28526;-76
2021/05/16 23:23:19;;;;;;;4.37;2.50;;;;;;;13.17;100.00;98083.06;4270586;81;28494;-78
2021/05/16 23:29:21;;;;;;;3.05;2.12;;;;;;;13.08;100.00;98084.16;4256939;81;28570;-75
2021/05/16 23:35:24;;;;;;;5.70;2.08;;;;;;;12.96;100.00;98073.63;4296547;81;28549;-75
2021/05/16 23:41:26;;;;;;;5.08;2.00;;;;;;;12.88;100.00;98057.98;4290346;81;28527;-75
2021/05/16 23:47:28;;;;;;;6.90;2.50;;;;;;;12.96;100.00;98048.00;4279661;81;28584;-75
2021/05/16 23:53:30;;;;;;;4.35;2.35;;;;;;;12.63;100.00;98039.91;4284462;81;28470;-75
2021/05/16 23:59:32;;;;;;;2.47;1.90;;;;;;;12.51;100.00;98034.24;4250468;81;28518;-76
